sensor_id;sensor_type;location;lat;lon;timestamp;P1;durP1;ratioP1;P2;durP2;ratioP2
38208;SDS011;24016;52.102;11.584;2023-04-15T00:01:21;20.67;;;12.25;;
38208;SDS011;24016;52.102;11.584;2023-04-15T00:03:49;18.48;;;11.75;;
38208;SDS011;24016;52.102;11.584;2023-04-15T00:06:19;25.00;;;12.90;;
38208;SDS011;24016;52.102;11.584;2023-04-15T00:08:45;19.02;;;11.57;;
38208;SDS011;24016;52.102;11.584;2023-04-15T00:11:11;15.30;;;9.75;;
38208;SDS011;24016;52.102;11.584;2023-04-15T00:13:37;15.93;;;11.18;;
38208;SDS011;24016;52.102;11.584;2023-04-15T00:16:03;18.80;;;12.65;;
38208;SDS011;24016;52.102;11.584;2023-04-15T00:18:30;17.95;;;11.73;;
38208;SDS011;24016;52.102;11.584;2023-04-15T00:20:56;20.65;;;13.02;;
38208;SDS011;24016;52.102;11.584;2023-04-15T00:23:24;24.92;;;15.55;;
38208;SDS011;24016;52.102;11.584;2023-04-15T00:25:50;24.95;;;15.75;;
38208;SDS011;24016;52.102;11.584;2023-04-15T00:28:16;28.58;;;17.27;;
38208;SDS011;24016;52.102;11.584;2023-04-15T00:30:42;27.70;;;17.77;;
38208;SDS011;24016;52.102;11.584;2023-04-15T00:33:08;23.38;;;16.65;;
38208;SDS011;24016;52.102;11.584;2023-04-15T00:35:34;23.05;;;14.88;;
38208;SDS011;24016;52.102;11.584;2023-04-15T00:38:00;22.33;;;13.77;;
38208;SDS011;24016;52.102;11.584;2023-04-15T00:40:26;22.42;;;12.55;;
38208;SDS011;24016;52.102;11.584;2023-04-15T00:42:51;20.48;;;11.98;;
38208;SDS011;24016;52.102;11.584;2023-04-15T00:45:17;18.65;;;10.85;;
38208;SDS011;24016;52.102;11.584;2023-04-15T00:47:43;21.10;;;11.57;;
38208;SDS011;24016;52.102;11.584;2023-04-15T00:50:09;17.83;;;10.35;;
38208;SDS011;24016;52.102;11.584;2023-04-15T00:52:36;17.77;;;9.95;;
38208;SDS011;24016;52.102;11.584;2023-04-15T00:55:02;15.90;;;10.35;;
38208;SDS011;24016;52.102;11.584;2023-04-15T00:57:29;20.63;;;10.75;;
38208;SDS011;24016;52.102;11.584;2023-04-15T00:59:55;20.25;;;11.05;;
38208;SDS011;24016;52.102;11.584;2023-04-15T01:02:21;21.70;;;11.45;;
38208;SDS011;24016;52.102;11.584;2023-04-15T01:04:47;19.75;;;10.48;;
38208;SDS011;24016;52.102;11.584;2023-04-15T01:07:13;18.48;;;10.57;;
38208;SDS011;24016;52.102;11.584;2023-04-15T01:09:39;18.70;;;10.68;;
38208;SDS011;24016;52.102;11.584;2023-04-15T01:12:05;20.77;;;11.10;;
38208;SDS011;24016;52.102;11.584;2023-04-15T01:14:32;22.17;;;10.57;;
38208;SDS011;24016;52.102;11.584;2023-04-15T01:16:58;20.90;;;10.73;;
38208;SDS011;24016;52.102;11.584;2023-04-15T01:19:23;23.70;;;11.70;;
38208;SDS011;24016;52.102;11.584;2023-04-15T01:21:49;19.35;;;10.50;;
38208;SDS011;24016;52.102;11.584;2023-04-15T01:24:14;20.20;;;11.57;;
38208;SDS011;24016;52.102;11.584;2023-04-15T01:26:42;23.45;;;11.93;;
38208;SDS011;24016;52.102;11.584;2023-04-15T01:29:07;19.35;;;12.10;;
38208;SDS011;24016;52.102;11.584;2023-04-15T01:36:57;24.10;;;12.80;;
38208;SDS011;24016;52.102;11.584;2023-04-15T01:39:23;27.63;;;14.25;;
38208;SDS011;24016;52.102;11.584;2023-04-15T01:41:48;26.52;;;13.27;;
38208;SDS011;24016;52.102;11.584;2023-04-15T01:44:14;21.60;;;12.50;;
38208;SDS011;24016;52.102;11.584;2023-04-15T01:46:39;28.85;;;15.02;;
38208;SDS011;24016;52.102;11.584;2023-04-15T01:49:08;29.98;;;15.00;;
38208;SDS011;24016;52.102;11.584;2023-04-15T01:51:33;32.28;;;14.90;;
38208;SDS011;24016;52.102;11.584;2023-04-15T01:53:59;28.83;;;15.85;;
38208;SDS011;24016;52.102;11.584;2023-04-15T01:56:25;27.15;;;15.40;;
38208;SDS011;24016;52.102;11.584;2023-04-15T01:58:51;30.83;;;16.30;;
38208;SDS011;24016;52.102;11.584;2023-04-15T02:01:16;29.15;;;15.88;;
38208;SDS011;24016;52.102;11.584;2023-04-15T02:03:43;32.42;;;17.00;;
38208;SDS011;24016;52.102;11.584;2023-04-15T02:06:09;41.80;;;18.05;;
38208;SDS011;24016;52.102;11.584;2023-04-15T02:08:35;34.15;;;18.15;;
38208;SDS011;24016;52.102;11.584;2023-04-15T02:11:01;29.38;;;16.98;;
38208;SDS011;24016;52.102;11.584;2023-04-15T02:13:35;30.63;;;17.08;;
38208;SDS011;24016;52.102;11.584;2023-04-15T02:16:01;36.95;;;17.65;;
38208;SDS011;24016;52.102;11.584;2023-04-15T02:18:28;27.60;;;15.52;;
38208;SDS011;24016;52.102;11.584;2023-04-15T02:20:54;27.30;;;15.13;;
38208;SDS011;24016;52.102;11.584;2023-04-15T02:23:24;27.30;;;15.18;;
38208;SDS011;24016;52.102;11.584;2023-04-15T02:25:49;34.00;;;15.48;;
38208;SDS011;24016;52.102;11.584;2023-04-15T02:28:15;29.08;;;14.73;;
38208;SDS011;24016;52.102;11.584;2023-04-15T02:30:40;33.97;;;14.98;;
38208;SDS011;24016;52.102;11.584;2023-04-15T02:33:06;31.75;;;14.15;;
38208;SDS011;24016;52.102;11.584;2023-04-15T02:35:32;24.70;;;12.40;;
38208;SDS011;24016;52.102;11.584;2023-04-15T02:37:57;21.67;;;12.13;;
38208;SDS011;24016;52.102;11.584;2023-04-15T02:40:26;26.15;;;12.82;;
38208;SDS011;24016;52.102;11.584;2023-04-15T02:42:53;25.63;;;12.10;;
38208;SDS011;24016;52.102;11.584;2023-04-15T02:45:18;20.98;;;10.82;;
38208;SDS011;24016;52.102;11.584;2023-04-15T02:47:47;29.02;;;12.02;;
38208;SDS011;24016;52.102;11.584;2023-04-15T02:50:13;22.70;;;11.55;;
38208;SDS011;24016;52.102;11.584;2023-04-15T02:52:39;21.42;;;11.18;;
38208;SDS011;24016;52.102;11.584;2023-04-15T02:55:05;24.13;;;11.23;;
38208;SDS011;24016;52.102;11.584;2023-04-15T02:57:32;20.67;;;10.70;;
38208;SDS011;24016;52.102;11.584;2023-04-15T02:59:58;21.42;;;10.77;;
38208;SDS011;24016;52.102;11.584;2023-04-15T03:02:32;22.30;;;11.00;;
38208;SDS011;24016;52.102;11.584;2023-04-15T03:04:59;20.92;;;10.18;;
38208;SDS011;24016;52.102;11.584;2023-04-15T03:07:25;18.48;;;10.20;;
38208;SDS011;24016;52.102;11.584;2023-04-15T03:09:52;16.85;;;10.23;;
38208;SDS011;24016;52.102;11.584;2023-04-15T03:12:17;19.00;;;10.00;;
38208;SDS011;24016;52.102;11.584;2023-04-15T03:14:43;17.58;;;10.02;;
38208;SDS011;24016;52.102;11.584;2023-04-15T03:17:08;21.77;;;10.80;;
38208;SDS011;24016;52.102;11.584;2023-04-15T03:19:35;20.30;;;10.68;;
38208;SDS011;24016;52.102;11.584;2023-04-15T03:22:01;24.90;;;10.65;;
38208;SDS011;24016;52.102;11.584;2023-04-15T03:24:27;21.30;;;10.82;;
38208;SDS011;24016;52.102;11.584;2023-04-15T03:26:54;21.17;;;11.52;;
38208;SDS011;24016;52.102;11.584;2023-04-15T03:29:22;22.40;;;11.18;;
38208;SDS011;24016;52.102;11.584;2023-04-15T03:31:48;30.85;;;13.15;;
38208;SDS011;24016;52.102;11.584;2023-04-15T03:34:14;28.52;;;12.57;;
38208;SDS011;24016;52.102;11.584;2023-04-15T03:36:40;27.75;;;12.77;;
38208;SDS011;24016;52.102;11.584;2023-04-15T03:39:06;24.90;;;12.90;;
38208;SDS011;24016;52.102;11.584;2023-04-15T03:41:31;24.67;;;12.30;;
38208;SDS011;24016;52.102;11.584;2023-04-15T03:43:57;26.65;;;12.88;;
38208;SDS011;24016;52.102;11.584;2023-04-15T03:46:23;27.65;;;12.57;;
38208;SDS011;24016;52.102;11.584;2023-04-15T03:48:48;26.15;;;11.85;;
38208;SDS011;24016;52.102;11.584;2023-04-15T03:51:14;23.73;;;12.05;;
38208;SDS011;24016;52.102;11.584;2023-04-15T03:53:39;20.55;;;10.95;;
38208;SDS011;24016;52.102;11.584;2023-04-15T03:56:05;19.35;;;10.75;;
38208;SDS011;24016;52.102;11.584;2023-04-15T03:58:30;24.58;;;11.07;;
38208;SDS011;24016;52.102;11.584;2023-04-15T04:00:56;25.33;;;10.90;;
38208;SDS011;24016;52.102;11.584;2023-04-15T04:03:21;18.13;;;9.77;;
38208;SDS011;24016;52.102;11.584;2023-04-15T04:05:47;19.30;;;9.85;;
38208;SDS011;24016;52.102;11.584;2023-04-15T04:08:13;18.85;;;10.00;;
38208;SDS011;24016;52.102;11.584;2023-04-15T04:10:40;17.70;;;9.82;;
38208;SDS011;24016;52.102;11.584;2023-04-15T04:13:06;19.38;;;10.43;;
38208;SDS011;24016;52.102;11.584;2023-04-15T04:15:31;20.30;;;11.20;;
38208;SDS011;24016;52.102;11.584;2023-04-15T04:17:57;17.55;;;10.82;;
38208;SDS011;24016;52.102;11.584;2023-04-15T04:20:22;20.05;;;11.85;;
38208;SDS011;24016;52.102;11.584;2023-04-15T04:22:48;23.88;;;12.13;;
38208;SDS011;24016;52.102;11.584;2023-04-15T04:25:14;25.33;;;12.43;;
38208;SDS011;24016;52.102;11.584;2023-04-15T04:27:40;20.08;;;12.52;;
38208;SDS011;24016;52.102;11.584;2023-04-15T04:30:06;22.00;;;12.15;;
38208;SDS011;24016;52.102;11.584;2023-04-15T04:32:32;21.27;;;11.90;;
38208;SDS011;24016;52.102;11.584;2023-04-15T04:34:57;22.77;;;12.15;;
38208;SDS011;24016;52.102;11.584;2023-04-15T04:37:23;18.40;;;11.25;;
38208;SDS011;24016;52.102;11.584;2023-04-15T04:39:49;18.63;;;11.20;;
38208;SDS011;24016;52.102;11.584;2023-04-15T04:42:14;20.15;;;10.95;;
38208;SDS011;24016;52.102;11.584;2023-04-15T04:44:40;20.55;;;11.15;;
38208;SDS011;24016;52.102;11.584;2023-04-15T04:47:05;17.95;;;10.60;;
38208;SDS011;24016;52.102;11.584;2023-04-15T04:49:31;19.92;;;10.63;;
38208;SDS011;24016;52.102;11.584;2023-04-15T04:51:57;16.42;;;9.90;;
38208;SDS011;24016;52.102;11.584;2023-04-15T04:54:24;22.42;;;10.15;;
38208;SDS011;24016;52.102;11.584;2023-04-15T04:56:50;16.92;;;9.63;;
38208;SDS011;24016;52.102;11.584;2023-04-15T04:59:15;18.05;;;9.90;;
38208;SDS011;24016;52.102;11.584;2023-04-15T05:01:41;17.30;;;8.80;;
38208;SDS011;24016;52.102;11.584;2023-04-15T05:04:06;20.52;;;10.05;;
38208;SDS011;24016;52.102;11.584;2023-04-15T05:06:32;15.88;;;8.35;;
38208;SDS011;24016;52.102;11.584;2023-04-15T05:08:59;19.85;;;9.27;;
38208;SDS011;24016;52.102;11.584;2023-04-15T05:11:25;13.45;;;8.45;;
38208;SDS011;24016;52.102;11.584;2023-04-15T05:13:51;20.27;;;9.23;;
38208;SDS011;24016;52.102;11.584;2023-04-15T05:16:16;17.52;;;9.13;;
38208;SDS011;24016;52.102;11.584;2023-04-15T05:18:43;16.75;;;9.23;;
38208;SDS011;24016;52.102;11.584;2023-04-15T05:21:09;16.77;;;8.73;;
38208;SDS011;24016;52.102;11.584;2023-04-15T05:23:35;18.08;;;9.02;;
38208;SDS011;24016;52.102;11.584;2023-04-15T05:26:01;15.93;;;8.90;;
38208;SDS011;24016;52.102;11.584;2023-04-15T05:28:27;16.73;;;9.07;;
38208;SDS011;24016;52.102;11.584;2023-04-15T05:30:53;15.00;;;9.02;;
38208;SDS011;24016;52.102;11.584;2023-04-15T05:33:18;17.95;;;9.20;;
38208;SDS011;24016;52.102;11.584;2023-04-15T05:35:44;16.50;;;8.85;;
38208;SDS011;24016;52.102;11.584;2023-04-15T05:38:10;16.77;;;8.82;;
38208;SDS011;24016;52.102;11.584;2023-04-15T05:40:36;18.63;;;9.50;;
38208;SDS011;24016;52.102;11.584;2023-04-15T05:43:02;19.50;;;9.20;;
38208;SDS011;24016;52.102;11.584;2023-04-15T05:45:27;18.15;;;8.73;;
38208;SDS011;24016;52.102;11.584;2023-04-15T05:47:53;19.02;;;8.95;;
38208;SDS011;24016;52.102;11.584;2023-04-15T05:50:19;20.95;;;9.88;;
38208;SDS011;24016;52.102;11.584;2023-04-15T05:52:45;19.13;;;9.23;;
38208;SDS011;24016;52.102;11.584;2023-04-15T05:55:10;18.70;;;9.50;;
38208;SDS011;24016;52.102;11.584;2023-04-15T05:57:36;21.15;;;9.90;;
38208;SDS011;24016;52.102;11.584;2023-04-15T06:00:03;22.65;;;10.18;;
38208;SDS011;24016;52.102;11.584;2023-04-15T06:02:29;18.77;;;10.13;;
38208;SDS011;24016;52.102;11.584;2023-04-15T06:04:55;18.95;;;10.30;;
38208;SDS011;24016;52.102;11.584;2023-04-15T06:07:21;20.20;;;9.35;;
38208;SDS011;24016;52.102;11.584;2023-04-15T06:09:47;19.13;;;10.02;;
38208;SDS011;24016;52.102;11.584;2023-04-15T06:12:13;20.33;;;9.45;;
38208;SDS011;24016;52.102;11.584;2023-04-15T06:14:39;19.40;;;10.25;;
38208;SDS011;24016;52.102;11.584;2023-04-15T06:17:04;20.52;;;10.40;;
38208;SDS011;24016;52.102;11.584;2023-04-15T06:19:30;19.50;;;9.57;;
38208;SDS011;24016;52.102;11.584;2023-04-15T06:21:56;24.23;;;10.95;;
38208;SDS011;24016;52.102;11.584;2023-04-15T06:24:22;19.85;;;10.20;;
38208;SDS011;24016;52.102;11.584;2023-04-15T06:26:48;25.13;;;10.55;;
38208;SDS011;24016;52.102;11.584;2023-04-15T06:29:13;22.00;;;10.73;;
38208;SDS011;24016;52.102;11.584;2023-04-15T06:31:39;22.17;;;11.02;;
38208;SDS011;24016;52.102;11.584;2023-04-15T06:34:04;28.63;;;11.75;;
38208;SDS011;24016;52.102;11.584;2023-04-15T06:36:30;18.85;;;10.57;;
38208;SDS011;24016;52.102;11.584;2023-04-15T06:41:29;31.73;;;12.13;;
38208;SDS011;24016;52.102;11.584;2023-04-15T06:43:55;25.70;;;12.10;;
38208;SDS011;24016;52.102;11.584;2023-04-15T06:46:20;27.00;;;12.40;;
38208;SDS011;24016;52.102;11.584;2023-04-15T06:48:46;25.48;;;11.48;;
38208;SDS011;24016;52.102;11.584;2023-04-15T06:51:12;27.23;;;13.07;;
38208;SDS011;24016;52.102;11.584;2023-04-15T06:53:37;25.88;;;12.50;;
38208;SDS011;24016;52.102;11.584;2023-04-15T06:56:05;24.15;;;11.98;;
38208;SDS011;24016;52.102;11.584;2023-04-15T06:58:32;26.30;;;13.30;;
38208;SDS011;24016;52.102;11.584;2023-04-15T07:00:57;25.15;;;12.82;;
38208;SDS011;24016;52.102;11.584;2023-04-15T07:03:23;29.48;;;13.50;;
38208;SDS011;24016;52.102;11.584;2023-04-15T07:05:48;27.08;;;13.77;;
38208;SDS011;24016;52.102;11.584;2023-04-15T07:08:14;30.02;;;14.43;;
38208;SDS011;24016;52.102;11.584;2023-04-15T07:10:40;31.63;;;14.35;;
38208;SDS011;24016;52.102;11.584;2023-04-15T07:13:05;31.80;;;15.35;;
38208;SDS011;24016;52.102;11.584;2023-04-15T07:15:32;36.80;;;16.10;;
38208;SDS011;24016;52.102;11.584;2023-04-15T07:17:58;36.67;;;16.67;;
38208;SDS011;24016;52.102;11.584;2023-04-15T07:20:24;35.55;;;16.50;;
38208;SDS011;24016;52.102;11.584;2023-04-15T07:22:49;44.17;;;17.77;;
38208;SDS011;24016;52.102;11.584;2023-04-15T07:25:15;44.95;;;18.05;;
38208;SDS011;24016;52.102;11.584;2023-04-15T07:27:41;43.38;;;18.88;;
38208;SDS011;24016;52.102;11.584;2023-04-15T07:30:08;44.03;;;19.23;;
38208;SDS011;24016;52.102;11.584;2023-04-15T07:32:34;40.50;;;19.40;;
38208;SDS011;24016;52.102;11.584;2023-04-15T07:35:00;44.38;;;19.98;;
38208;SDS011;24016;52.102;11.584;2023-04-15T07:37:27;52.85;;;21.65;;
38208;SDS011;24016;52.102;11.584;2023-04-15T07:39:53;53.05;;;22.65;;
38208;SDS011;24016;52.102;11.584;2023-04-15T07:42:19;47.97;;;22.02;;
38208;SDS011;24016;52.102;11.584;2023-04-15T07:44:45;56.20;;;23.40;;
38208;SDS011;24016;52.102;11.584;2023-04-15T07:47:10;65.57;;;25.42;;
38208;SDS011;24016;52.102;11.584;2023-04-15T07:49:36;72.30;;;25.75;;
38208;SDS011;24016;52.102;11.584;2023-04-15T07:52:02;67.35;;;27.42;;
38208;SDS011;24016;52.102;11.584;2023-04-15T07:54:27;59.50;;;25.95;;
38208;SDS011;24016;52.102;11.584;2023-04-15T07:56:53;71.55;;;29.35;;
38208;SDS011;24016;52.102;11.584;2023-04-15T07:59:19;75.72;;;29.02;;
38208;SDS011;24016;52.102;11.584;2023-04-15T08:01:45;74.43;;;28.58;;
38208;SDS011;24016;52.102;11.584;2023-04-15T08:04:10;73.50;;;28.30;;
38208;SDS011;24016;52.102;11.584;2023-04-15T08:06:36;74.00;;;29.80;;
38208;SDS011;24016;52.102;11.584;2023-04-15T08:09:03;82.85;;;30.45;;
38208;SDS011;24016;52.102;11.584;2023-04-15T08:11:30;83.68;;;32.47;;
38208;SDS011;24016;52.102;11.584;2023-04-15T08:13:55;79.65;;;32.70;;
38208;SDS011;24016;52.102;11.584;2023-04-15T08:16:22;80.15;;;32.88;;
38208;SDS011;24016;52.102;11.584;2023-04-15T08:18:50;77.18;;;31.90;;
38208;SDS011;24016;52.102;11.584;2023-04-15T08:21:17;81.30;;;34.28;;
38208;SDS011;24016;52.102;11.584;2023-04-15T08:23:43;93.70;;;35.78;;
38208;SDS011;24016;52.102;11.584;2023-04-15T08:26:09;77.75;;;34.78;;
38208;SDS011;24016;52.102;11.584;2023-04-15T08:28:36;80.07;;;34.90;;
38208;SDS011;24016;52.102;11.584;2023-04-15T08:31:03;88.78;;;38.10;;
38208;SDS011;24016;52.102;11.584;2023-04-15T08:33:28;95.30;;;39.28;;
38208;SDS011;24016;52.102;11.584;2023-04-15T08:35:54;101.07;;;40.17;;
38208;SDS011;24016;52.102;11.584;2023-04-15T08:38:19;95.40;;;39.63;;
38208;SDS011;24016;52.102;11.584;2023-04-15T08:40:45;81.38;;;37.78;;
38208;SDS011;24016;52.102;11.584;2023-04-15T08:43:21;109.70;;;42.60;;
38208;SDS011;24016;52.102;11.584;2023-04-15T08:45:52;104.75;;;42.20;;
38208;SDS011;24016;52.102;11.584;2023-04-15T08:48:18;90.05;;;41.72;;
38208;SDS011;24016;52.102;11.584;2023-04-15T08:50:44;90.07;;;41.55;;
38208;SDS011;24016;52.102;11.584;2023-04-15T08:53:11;85.88;;;40.65;;
38208;SDS011;24016;52.102;11.584;2023-04-15T08:55:44;104.80;;;42.47;;
38208;SDS011;24016;52.102;11.584;2023-04-15T08:58:11;95.20;;;41.92;;
38208;SDS011;24016;52.102;11.584;2023-04-15T09:00:37;87.60;;;40.65;;
38208;SDS011;24016;52.102;11.584;2023-04-15T09:03:04;103.20;;;44.05;;
38208;SDS011;24016;52.102;11.584;2023-04-15T09:05:33;89.90;;;42.90;;
38208;SDS011;24016;52.102;11.584;2023-04-15T09:07:59;100.35;;;42.90;;
38208;SDS011;24016;52.102;11.584;2023-04-15T09:10:26;86.50;;;41.45;;
38208;SDS011;24016;52.102;11.584;2023-04-15T09:12:52;100.10;;;43.53;;
38208;SDS011;24016;52.102;11.584;2023-04-15T09:15:17;73.85;;;40.63;;
38208;SDS011;24016;52.102;11.584;2023-04-15T09:17:43;106.13;;;43.03;;
38208;SDS011;24016;52.102;11.584;2023-04-15T09:20:10;83.28;;;41.92;;
38208;SDS011;24016;52.102;11.584;2023-04-15T09:22:38;99.57;;;43.28;;
38208;SDS011;24016;52.102;11.584;2023-04-15T09:25:23;88.32;;;41.22;;
38208;SDS011;24016;52.102;11.584;2023-04-15T09:27:54;77.97;;;39.58;;
38208;SDS011;24016;52.102;11.584;2023-04-15T09:30:21;70.32;;;40.22;;
38208;SDS011;24016;52.102;11.584;2023-04-15T09:32:50;90.53;;;42.67;;
38208;SDS011;24016;52.102;11.584;2023-04-15T09:35:21;77.22;;;42.65;;
38208;SDS011;24016;52.102;11.584;2023-04-15T09:37:48;79.30;;;41.67;;
38208;SDS011;24016;52.102;11.584;2023-04-15T09:40:14;70.47;;;41.47;;
38208;SDS011;24016;52.102;11.584;2023-04-15T09:43:05;80.57;;;41.08;;
38208;SDS011;24016;52.102;11.584;2023-04-15T09:45:32;65.53;;;40.67;;
38208;SDS011;24016;52.102;11.584;2023-04-15T09:47:59;68.68;;;40.70;;
38208;SDS011;24016;52.102;11.584;2023-04-15T09:50:51;75.13;;;42.85;;
38208;SDS011;24016;52.102;11.584;2023-04-15T09:53:21;65.45;;;39.78;;
38208;SDS011;24016;52.102;11.584;2023-04-15T09:55:49;69.75;;;39.45;;
38208;SDS011;24016;52.102;11.584;2023-04-15T09:58:26;64.43;;;39.78;;
38208;SDS011;24016;52.102;11.584;2023-04-15T10:00:53;60.63;;;37.85;;
38208;SDS011;24016;52.102;11.584;2023-04-15T10:03:27;60.45;;;38.70;;
38208;SDS011;24016;52.102;11.584;2023-04-15T10:05:54;64.10;;;40.83;;
38208;SDS011;24016;52.102;11.584;2023-04-15T10:08:28;62.97;;;39.63;;
38208;SDS011;24016;52.102;11.584;2023-04-15T10:10:54;54.45;;;37.03;;
38208;SDS011;24016;52.102;11.584;2023-04-15T10:13:23;59.33;;;38.90;;
38208;SDS011;24016;52.102;11.584;2023-04-15T10:15:50;66.30;;;39.75;;
38208;SDS011;24016;52.102;11.584;2023-04-15T10:18:35;66.72;;;39.15;;
38208;SDS011;24016;52.102;11.584;2023-04-15T10:21:04;59.45;;;38.45;;
38208;SDS011;24016;52.102;11.584;2023-04-15T10:23:31;54.08;;;36.55;;
38208;SDS011;24016;52.102;11.584;2023-04-15T10:25:57;59.00;;;39.20;;
38208;SDS011;24016;52.102;11.584;2023-04-15T10:28:23;59.38;;;38.60;;
38208;SDS011;24016;52.102;11.584;2023-04-15T10:30:49;51.25;;;36.00;;
38208;SDS011;24016;52.102;11.584;2023-04-15T10:33:17;54.60;;;38.38;;
38208;SDS011;24016;52.102;11.584;2023-04-15T10:35:46;55.90;;;37.33;;
38208;SDS011;24016;52.102;11.584;2023-04-15T10:41:19;53.45;;;37.25;;
38208;SDS011;24016;52.102;11.584;2023-04-15T10:43:52;53.95;;;36.88;;
38208;SDS011;24016;52.102;11.584;2023-04-15T10:46:23;54.38;;;36.75;;
38208;SDS011;24016;52.102;11.584;2023-04-15T10:49:10;52.90;;;36.50;;
38208;SDS011;24016;52.102;11.584;2023-04-15T10:51:38;50.55;;;36.00;;
38208;SDS011;24016;52.102;11.584;2023-04-15T10:54:08;55.85;;;38.90;;
38208;SDS011;24016;52.102;11.584;2023-04-15T10:56:40;54.47;;;37.17;;
38208;SDS011;24016;52.102;11.584;2023-04-15T10:59:07;51.03;;;36.28;;
38208;SDS011;24016;52.102;11.584;2023-04-15T11:01:52;53.10;;;37.22;;
38208;SDS011;24016;52.102;11.584;2023-04-15T11:07:31;52.33;;;36.83;;
38208;SDS011;24016;52.102;11.584;2023-04-15T11:09:58;47.13;;;34.53;;
38208;SDS011;24016;52.102;11.584;2023-04-15T11:12:32;45.00;;;34.03;;
38208;SDS011;24016;52.102;11.584;2023-04-15T11:15:35;49.30;;;34.65;;
38208;SDS011;24016;52.102;11.584;2023-04-15T11:17:54;42.63;;;32.83;;
38208;SDS011;24016;52.102;11.584;2023-04-15T11:20:20;45.15;;;32.42;;
38208;SDS011;24016;52.102;11.584;2023-04-15T11:22:47;46.10;;;33.90;;
38208;SDS011;24016;52.102;11.584;2023-04-15T11:25:33;45.80;;;32.95;;
38208;SDS011;24016;52.102;11.584;2023-04-15T11:27:59;47.30;;;33.35;;
38208;SDS011;24016;52.102;11.584;2023-04-15T11:30:27;39.13;;;32.80;;
38208;SDS011;24016;52.102;11.584;2023-04-15T11:33:04;46.90;;;34.85;;
38208;SDS011;24016;52.102;11.584;2023-04-15T11:35:31;44.67;;;34.33;;
38208;SDS011;24016;52.102;11.584;2023-04-15T11:37:57;47.28;;;35.13;;
38208;SDS011;24016;52.102;11.584;2023-04-15T11:40:25;44.50;;;33.92;;
38208;SDS011;24016;52.102;11.584;2023-04-15T11:48:27;42.88;;;33.00;;
38208;SDS011;24016;52.102;11.584;2023-04-15T11:51:04;44.10;;;34.50;;
38208;SDS011;24016;52.102;11.584;2023-04-15T11:53:35;40.70;;;32.85;;
38208;SDS011;24016;52.102;11.584;2023-04-15T11:56:01;43.30;;;35.05;;
38208;SDS011;24016;52.102;11.584;2023-04-15T11:58:27;43.83;;;34.17;;
38208;SDS011;24016;52.102;11.584;2023-04-15T12:00:55;45.92;;;36.22;;
38208;SDS011;24016;52.102;11.584;2023-04-15T12:03:23;45.80;;;34.65;;
38208;SDS011;24016;52.102;11.584;2023-04-15T12:06:15;50.78;;;36.80;;
38208;SDS011;24016;52.102;11.584;2023-04-15T12:11:30;50.38;;;37.10;;
38208;SDS011;24016;52.102;11.584;2023-04-15T12:14:05;54.35;;;37.58;;
38208;SDS011;24016;52.102;11.584;2023-04-15T12:16:35;56.03;;;38.90;;
38208;SDS011;24016;52.102;11.584;2023-04-15T12:19:03;49.65;;;37.10;;
38208;SDS011;24016;52.102;11.584;2023-04-15T12:21:35;52.08;;;38.50;;
38208;SDS011;24016;52.102;11.584;2023-04-15T12:24:03;56.88;;;39.13;;
38208;SDS011;24016;52.102;11.584;2023-04-15T12:26:32;55.33;;;39.83;;
38208;SDS011;24016;52.102;11.584;2023-04-15T12:29:10;50.95;;;39.63;;
38208;SDS011;24016;52.102;11.584;2023-04-15T12:31:42;60.08;;;41.15;;
38208;SDS011;24016;52.102;11.584;2023-04-15T12:34:18;64.13;;;42.67;;
38208;SDS011;24016;52.102;11.584;2023-04-15T12:36:57;57.97;;;41.00;;
38208;SDS011;24016;52.102;11.584;2023-04-15T12:39:24;56.47;;;39.17;;
38208;SDS011;24016;52.102;11.584;2023-04-15T12:41:51;55.47;;;40.67;;
38208;SDS011;24016;52.102;11.584;2023-04-15T12:44:17;54.28;;;40.28;;
38208;SDS011;24016;52.102;11.584;2023-04-15T12:46:43;58.83;;;41.58;;
38208;SDS011;24016;52.102;11.584;2023-04-15T12:49:09;56.83;;;41.42;;
38208;SDS011;24016;52.102;11.584;2023-04-15T12:51:34;54.30;;;40.22;;
38208;SDS011;24016;52.102;11.584;2023-04-15T12:54:00;50.17;;;39.92;;
38208;SDS011;24016;52.102;11.584;2023-04-15T12:56:25;51.40;;;40.42;;
38208;SDS011;24016;52.102;11.584;2023-04-15T12:58:51;54.70;;;41.00;;
38208;SDS011;24016;52.102;11.584;2023-04-15T13:01:17;58.78;;;41.88;;
38208;SDS011;24016;52.102;11.584;2023-04-15T13:03:42;58.80;;;43.00;;
38208;SDS011;24016;52.102;11.584;2023-04-15T13:06:08;63.17;;;42.85;;
38208;SDS011;24016;52.102;11.584;2023-04-15T13:08:34;60.20;;;41.88;;
38208;SDS011;24016;52.102;11.584;2023-04-15T13:10:59;54.78;;;41.35;;
38208;SDS011;24016;52.102;11.584;2023-04-15T13:13:25;61.08;;;42.65;;
38208;SDS011;24016;52.102;11.584;2023-04-15T13:15:51;50.17;;;39.53;;
38208;SDS011;24016;52.102;11.584;2023-04-15T13:18:17;57.50;;;39.38;;
38208;SDS011;24016;52.102;11.584;2023-04-15T13:20:42;57.45;;;39.50;;
38208;SDS011;24016;52.102;11.584;2023-04-15T13:23:08;54.63;;;41.50;;
38208;SDS011;24016;52.102;11.584;2023-04-15T13:25:33;58.72;;;39.63;;
38208;SDS011;24016;52.102;11.584;2023-04-15T13:28:00;53.47;;;41.15;;
38208;SDS011;24016;52.102;11.584;2023-04-15T13:30:26;61.03;;;41.60;;
38208;SDS011;24016;52.102;11.584;2023-04-15T13:32:52;57.88;;;41.72;;
38208;SDS011;24016;52.102;11.584;2023-04-15T13:35:18;56.42;;;41.33;;
38208;SDS011;24016;52.102;11.584;2023-04-15T13:37:45;55.72;;;42.13;;
38208;SDS011;24016;52.102;11.584;2023-04-15T13:40:11;54.63;;;41.20;;
38208;SDS011;24016;52.102;11.584;2023-04-15T13:42:37;57.17;;;41.55;;
38208;SDS011;24016;52.102;11.584;2023-04-15T13:45:03;59.45;;;43.08;;
38208;SDS011;24016;52.102;11.584;2023-04-15T13:47:30;63.83;;;42.70;;
38208;SDS011;24016;52.102;11.584;2023-04-15T13:49:56;52.13;;;40.22;;
38208;SDS011;24016;52.102;11.584;2023-04-15T13:52:22;57.85;;;41.67;;
38208;SDS011;24016;52.102;11.584;2023-04-15T13:54:48;67.95;;;44.22;;
38208;SDS011;24016;52.102;11.584;2023-04-15T13:57:14;61.20;;;44.10;;
38208;SDS011;24016;52.102;11.584;2023-04-15T13:59:40;76.25;;;46.35;;
38208;SDS011;24016;52.102;11.584;2023-04-15T14:02:06;60.80;;;43.72;;
38208;SDS011;24016;52.102;11.584;2023-04-15T14:04:32;62.55;;;42.75;;
38208;SDS011;24016;52.102;11.584;2023-04-15T14:06:58;67.00;;;45.40;;
38208;SDS011;24016;52.102;11.584;2023-04-15T14:09:25;57.38;;;43.10;;
38208;SDS011;24016;52.102;11.584;2023-04-15T14:11:51;62.47;;;43.78;;
38208;SDS011;24016;52.102;11.584;2023-04-15T14:14:17;59.75;;;42.78;;
38208;SDS011;24016;52.102;11.584;2023-04-15T14:16:43;61.20;;;44.70;;
38208;SDS011;24016;52.102;11.584;2023-04-15T14:19:08;62.55;;;46.60;;
38208;SDS011;24016;52.102;11.584;2023-04-15T14:21:34;63.33;;;44.90;;
38208;SDS011;24016;52.102;11.584;2023-04-15T14:24:00;67.38;;;43.95;;
38208;SDS011;24016;52.102;11.584;2023-04-15T14:26:26;70.80;;;45.50;;
38208;SDS011;24016;52.102;11.584;2023-04-15T14:28:52;59.55;;;42.95;;
38208;SDS011;24016;52.102;11.584;2023-04-15T14:31:22;67.95;;;43.70;;
38208;SDS011;24016;52.102;11.584;2023-04-15T14:33:53;62.60;;;43.60;;